• Join FlightAware (Why Join?)
  • Login
  • US Flag 
02:52AM EDT


 

Airport Tracker/Info


-or-


 

Live Flight TrackerFlight Track Log ✈ THY1613 ✈ 25-Jul-2013 ✈ LTAF / ADA - EDDF / FRA

Flight Track Log - Related Links

Times and Time Zones

All times are in EDT time to prevent confusion due to time zone crossing. See the THY1613 flight status page for this flight to view local times or setup timezone preferences in your user account.

Time Position Orientation Groundspeed Altitude Reporting Facility
EDT Latitude Longitude Course Direction KTS MPH feet Rate Location/Type
08:42PM 37.4717 34.6101 313° West  Level Estimated
08:43PM 37.5414 34.5136 312° West  Level Estimated
08:44PM 37.6109 34.4170 312° West  Level Estimated
08:45PM 37.6804 34.3202 312° West  Level Estimated
08:46PM 37.7498 34.2232 312° West  Level Estimated
08:47PM 37.8191 34.1260 312° West  Level Estimated
08:48PM 37.8883 34.0286 312° West  Level Estimated
08:49PM 37.9575 33.9310 312° West  Level Estimated
08:50PM 38.0266 33.8333 312° West  Level Estimated
08:51PM 38.0955 33.7354 312° West  Level Estimated
08:52PM 38.1645 33.6373 312° West  Level Estimated
08:53PM 38.2333 33.5390 312° West  Level Estimated
08:54PM 38.3020 33.4405 312° West  Level Estimated
08:55PM 38.3707 33.3418 312° West  Level Estimated
08:56PM 38.4393 33.2430 312° West  Level Estimated
08:57PM 38.5078 33.1439 311° West  Level Estimated
08:58PM 38.5762 33.0447 311° West  Level Estimated
08:59PM 38.6445 32.9453 311° West  Level Estimated
09:00PM 38.7128 32.8456 311° West  Level Estimated
09:01PM 38.7809 32.7458 311° West  Level Estimated
09:02PM 38.8490 32.6459 311° West  Level Estimated
09:03PM 38.9170 32.5457 311° West  Level Estimated
09:04PM 38.9849 32.4453 311° West  Level Estimated
09:05PM 39.0527 32.3447 311° West  Level Estimated
09:06PM 39.1204 32.2440 311° West  Level Estimated
09:07PM 39.1881 32.1430 311° West  Level Estimated
09:08PM 39.2556 32.0419 311° West  Level Estimated
09:09PM 39.3231 31.9405 311° West  Level Estimated
09:10PM 39.3905 31.8390 311° West  Level Estimated
09:11PM 39.4578 31.7372 311° West  Level Estimated
09:12PM 39.5250 31.6353 311° West  Level Estimated
09:13PM 39.5921 31.5332 310° West  Level Estimated
09:14PM 39.6591 31.4308 310° West  Level Estimated
09:15PM 39.7261 31.3283 310° West  Level Estimated
09:16PM 39.7929 31.2256 310° West  Level Estimated
09:17PM 39.8597 31.1227 310° West  Level Estimated
09:18PM 39.9264 31.0195 310° West  Level Estimated
09:19PM 39.9929 30.9162 310° West  Level Estimated
09:20PM 40.0594 30.8127 310° West  Level Estimated
09:21PM 40.1258 30.7089 310° West  Level Estimated
09:22PM 40.1921 30.6050 310° West  Level Estimated
09:23PM 40.2583 30.5009 310° West  Level Estimated
09:24PM 40.3244 30.3965 310° West  Level Estimated
09:25PM 40.3904 30.2920 310° West  Level Estimated
09:26PM 40.4563 30.1872 310° West  Level Estimated
09:27PM 40.5222 30.0823 310° West  Level Estimated
09:28PM 40.5879 29.9771 309° West  Level Estimated
09:29PM 40.6535 29.8717 309° West  Level Estimated
09:30PM 40.7191 29.7662 309° West  Level Estimated
09:31PM 40.7845 29.6604 309° West  Level Estimated
09:32PM 40.8499 29.5544 309° West  Level Estimated
09:33PM 40.9151 29.4482 309° West  Level Estimated
09:34PM 40.9803 29.3418 309° West  Level Estimated
09:35PM 41.0453 29.2352 309° West  Level Estimated
09:36PM 41.1103 29.1283 309° West  Level Estimated
09:37PM 41.1751 29.0213 309° West  Level Estimated
09:38PM 41.2399 28.9140 309° West  Level Estimated
09:39PM 41.3046 28.8066 309° West  Level Estimated
09:40PM 41.3691 28.6989 309° West  Level Estimated
09:41PM 41.4336 28.5910 309° West  Level Estimated
09:42PM 41.4979 28.4829 308° West  Level Estimated
09:43PM 41.5622 28.3745 308° West  Level Estimated
09:44PM 41.6263 28.2660 308° West  Level Estimated
09:45PM 41.6904 28.1572 308° West  Level Estimated
09:46PM 41.7543 28.0483 308° West  Level Estimated
09:47PM 41.8182 27.9391 308° West  Level Estimated
09:48PM 41.8819 27.8297 308° West  Level Estimated
09:49PM 41.9455 27.7201 308° West  Level Estimated
09:50PM 42.0091 27.6102 308° West  Level Estimated
09:51PM 42.0725 27.5002 308° West  Level Estimated
09:52PM 42.1358 27.3899 308° West  Level Estimated
09:53PM 42.1991 27.2794 308° West  Level Estimated
09:54PM 42.2622 27.1686 308° West  Level Estimated
09:55PM 42.3252 27.0577 308° West  Level Estimated
09:56PM 42.3881 26.9465 307° West  Level Estimated
09:57PM 42.4509 26.8351 307° West  Level Estimated
09:58PM 42.5135 26.7235 307° West  Level Estimated
09:59PM 42.5761 26.6117 307° West  Level Estimated
10:00PM 42.6386 26.4996 307° West  Level Estimated
10:01PM 42.7009 26.3873 307° West  Level Estimated
10:02PM 42.7631 26.2748 307° West  Level Estimated
10:03PM 42.8253 26.1621 307° West  Level Estimated
10:04PM 42.8873 26.0491 307° West  Level Estimated
10:05PM 42.9492 25.9359 307° West  Level Estimated
10:06PM 43.0110 25.8225 307° West  Level Estimated
10:07PM 43.0727 25.7088 307° West  Level Estimated
10:08PM 43.1343 25.5949 307° West  Level Estimated
10:09PM 43.1957 25.4808 306° West  Level Estimated
10:10PM 43.2571 25.3665 306° West  Level Estimated
10:11PM 43.3183 25.2519 306° West  Level Estimated
10:12PM 43.3794 25.1371 306° West  Level Estimated
10:13PM 43.4404 25.0221 306° West  Level Estimated
10:14PM 43.5013 24.9068 306° West  Level Estimated
10:15PM 43.5621 24.7913 306° West  Level Estimated
10:16PM 43.6227 24.6756 306° West  Level Estimated
10:17PM 43.6833 24.5597 306° West  Level Estimated
10:18PM 43.7437 24.4435 306° West  Level Estimated
10:19PM 43.8040 24.3270 306° West  Level Estimated
10:20PM 43.8642 24.2104 306° West  Level Estimated
10:21PM 43.9243 24.0935 306° West  Level Estimated
10:22PM 43.9842 23.9763 305° West  Level Estimated
10:23PM 44.0440 23.8589 305° West  Level Estimated
10:24PM 44.1037 23.7413 305° West  Level Estimated
10:25PM 44.1633 23.6235 305° West  Level Estimated
10:26PM 44.2228 23.5054 305° West  Level Estimated
10:27PM 44.2821 23.3871 305° West  Level Estimated
10:28PM 44.3413 23.2685 305° West  Level Estimated
10:29PM 44.4004 23.1497 305° West  Level Estimated
10:30PM 44.4594 23.0307 305° West  Level Estimated
10:31PM 44.5183 22.9114 305° West  Level Estimated
10:32PM 44.5770 22.7918 305° West  Level Estimated
10:33PM 44.6356 22.6721 305° West  Level Estimated
10:34PM 44.6940 22.5521 304° West  Level Estimated
10:35PM 44.7524 22.4318 304° West  Level Estimated
10:36PM 44.8106 22.3113 304° West  Level Estimated
10:37PM 44.8687 22.1906 304° West  Level Estimated
10:38PM 44.9267 22.0696 304° West  Level Estimated
10:39PM 44.9845 21.9484 304° West  Level Estimated
10:40PM 45.0422 21.8269 304° West  Level Estimated
10:41PM 45.0998 21.7052 304° West  Level Estimated
10:42PM 45.1573 21.5832 304° West  Level Estimated
10:43PM 45.2146 21.4610 304° West  Level Estimated
10:44PM 45.2718 21.3386 304° West  Level Estimated
10:45PM 45.3288 21.2159 304° West  Level Estimated
10:46PM 45.3858 21.0929 303° West  Level Estimated
10:47PM 45.4426 20.9697 303° West  Level Estimated
10:48PM 45.4992 20.8463 303° West  Level Estimated
10:49PM 45.5558 20.7226 303° West  Level Estimated
10:50PM 45.6121 20.5987 303° West  Level Estimated
10:51PM 45.6684 20.4745 303° West  Level Estimated
10:52PM 45.7245 20.3500 303° West  Level Estimated
10:53PM 45.7805 20.2253 303° West  Level Estimated
10:54PM 45.8364 20.1004 303° West  Level Estimated
10:55PM 45.8921 19.9752 303° West  Level Estimated
10:56PM 45.9477 19.8498 303° West  Level Estimated
10:57PM 46.0031 19.7241 302° West  Level Estimated
10:58PM 46.0584 19.5981 302° West  Level Estimated
10:59PM 46.1136 19.4719 302° West  Level Estimated
11:00PM 46.1687 19.3455 302° West  Level Estimated
11:01PM 46.2235 19.2188 302° West  Level Estimated
11:02PM 46.2783 19.0918 302° West  Level Estimated
11:03PM 46.3329 18.9646 302° West  Level Estimated
11:04PM 46.3874 18.8372 302° West  Level Estimated
11:05PM 46.4417 18.7094 302° West  Level Estimated
11:06PM 46.4959 18.5815 302° West  Level Estimated
11:07PM 46.5499 18.4532 302° West  Level Estimated
11:08PM 46.6038 18.3248 301° West  Level Estimated
11:09PM 46.6576 18.1960 301° West  Level Estimated
11:10PM 46.7112 18.0670 301° West  Level Estimated
11:11PM 46.7646 17.9378 301° West  Level Estimated
11:12PM 46.8180 17.8083 301° West  Level Estimated
11:13PM 46.8711 17.6785 301° West  Level Estimated
11:14PM 46.9241 17.5485 301° West  Level Estimated
11:15PM 46.9770 17.4182 301° West  Level Estimated
11:16PM 47.0298 17.2877 301° West  Level Estimated
11:17PM 47.0823 17.1569 301° West  Level Estimated
11:18PM 47.1348 17.0258 300° West  Level Estimated
11:19PM 47.1870 16.8945 300° West  Level Estimated
11:20PM 47.2392 16.7630 300° West  Level Estimated
11:21PM 47.2912 16.6311 300° West  Level Estimated
11:22PM 47.3430 16.4991 300° West  Level Estimated
11:23PM 47.3947 16.3667 300° West  Level Estimated
11:24PM 47.4462 16.2341 300° West  Level Estimated
11:25PM 47.4976 16.1012 300° West  Level Estimated
11:26PM 47.5488 15.9681 300° West  Level Estimated
11:27PM 47.5998 15.8348 300° West  Level Estimated
11:28PM 47.6507 15.7011 300° West  Level Estimated
11:29PM 47.7015 15.5672 299° West  Level Estimated
11:30PM 47.7521 15.4331 299° West  Level Estimated
11:31PM 47.8025 15.2986 299° West  Level Estimated
11:32PM 47.8528 15.1639 299° West  Level Estimated
11:33PM 47.9029 15.0290 299° West  Level Estimated
11:34PM 47.9529 14.8938 299° West  Level Estimated
11:35PM 48.0027 14.7583 299° West  Level Estimated
11:36PM 48.0524 14.6226 299° West  Level Estimated
11:37PM 48.1018 14.4866 299° West  Level Estimated
11:38PM 48.1512 14.3503 299° West  Level Estimated
11:39PM 48.2003 14.2138 298° West  Level Estimated
11:40PM 48.2493 14.0770 298° West  Level Estimated
11:41PM 48.2982 13.9400 298° West  Level Estimated
11:42PM 48.3469 13.8027 298° West  Level Estimated
11:43PM 48.3954 13.6651 298° West  Level Estimated
11:44PM 48.4437 13.5273 298° West  Level Estimated
11:45PM 48.4919 13.3892 298° West  Level Estimated
11:46PM 48.5399 13.2509 298° West  Level Estimated
11:47PM 48.5878 13.1123 298° West  Level Estimated
11:48PM 48.6355 12.9734 297° West  Level Estimated
11:49PM 48.6830 12.8342 297° West  Level Estimated
11:50PM 48.7303 12.6948 297° West  Level Estimated
11:51PM 48.7775 12.5552 297° West  Level Estimated
11:52PM 48.8245 12.4152 297° West  Level Estimated
11:53PM 48.8714 12.2751 297° West  Level Estimated
11:54PM 48.9180 12.1346 297° West  Level Estimated
11:55PM 48.9645 11.9939 297° West  Level Estimated
11:56PM 49.0109 11.8529 297° West  Level Estimated
11:57PM 49.0570 11.7117 297° West  Level Estimated
11:58PM 49.1030 11.5702 296° West  Level Estimated
11:59PM 49.1488 11.4284 296° West  Level Estimated
12:00AM 49.1945 11.2864 296° West  Level Estimated
12:01AM 49.2399 11.1441 296° West  Level Estimated
12:02AM 49.2852 11.0016 296° West  Level Estimated
12:03AM 49.3303 10.8588 296° West  Level Estimated
12:04AM 49.3753 10.7157 296° West  Level Estimated
12:05AM 49.4200 10.5724 296° West  Level Estimated
12:06AM 49.4646 10.4288 296° West  Level Estimated
12:07AM 49.5090 10.2849 295° West  Level Estimated
12:08AM 49.5532 10.1408 295° West  Level Estimated
12:09AM 49.5973 9.9965 295° West  Level Estimated
12:10AM 49.6412 9.8518 295° West  Level Estimated
12:11AM 49.6848 9.7069 295° West  Level Estimated
12:12AM 49.7284 9.5618 295° West  Level Estimated
12:13AM 49.7717 9.4164 295° West  Level Estimated
12:14AM 49.8148 9.2707 295° West  Level Estimated
12:15AM 49.8578 9.1248 295° West  Level Estimated
12:16AM 49.9005 8.9786 294° West  Level Estimated
12:17AM 49.9431 8.8321 294° West  Level Estimated
12:18AM 49.9855 8.6854 294° West  Level Estimated
12:19AM 50.0264 8.5431 294° West  Level Estimated
12:20AM 50.0264 8.5431 73° East  Level Estimated
12:21AM 50.0264 8.5431 73° East  Level Estimated
12:22AM 50.0264 8.5431 73° East  Level Estimated
12:23AM 50.0264 8.5431 73° East  Level Estimated
12:24AM 50.0264 8.5431 73° East  Level Estimated
12:25AM 50.0264 8.5431 73° East  Level Estimated
12:26AM 50.0264 8.5431 73° East  Level Estimated
12:27AM 50.0264 8.5431 73° East  Level Estimated
12:28AM 50.0264 8.5431 73° East  Level Estimated
12:29AM 50.0264 8.5431 73° East  Level Estimated
12:30AM 50.0264 8.5431 73° East  Level Estimated
12:31AM 50.0264 8.5431 73° East  Level Estimated
12:32AM 50.0264 8.5431 73° East  Level Estimated
12:33AM 50.0264 8.5431 73° East  Level Estimated
12:34AM 50.0264 8.5431 73° East  Level Estimated
12:35AM 50.0264 8.5431 73° East  Level Estimated